createdAt,value
2023-01-05T00:00:02.497Z,0
2023-01-05T00:05:02.386Z,0
2023-01-05T00:10:03.202Z,0
2023-01-05T00:15:02.732Z,0
2023-01-05T00:20:02.704Z,0
2023-01-05T00:25:13.111Z,0
2023-01-05T00:30:02.774Z,0
2023-01-05T00:35:02.630Z,0
2023-01-05T00:40:02.458Z,0
2023-01-05T00:45:03.158Z,0
2023-01-05T00:50:02.915Z,0
2023-01-05T00:55:03.179Z,0
2023-01-05T01:00:02.561Z,0
2023-01-05T01:05:03.128Z,0
2023-01-05T01:10:02.863Z,0
2023-01-05T01:15:02.904Z,0
2023-01-05T01:20:02.671Z,0
2023-01-05T01:25:03.394Z,0
2023-01-05T01:30:03.959Z,0
2023-01-05T01:40:02.706Z,0
2023-01-05T01:45:02.979Z,0
2023-01-05T01:50:03.093Z,0
2023-01-05T01:55:03.815Z,0
2023-01-05T02:00:02.984Z,0
2023-01-05T02:05:02.846Z,0
2023-01-05T02:10:02.693Z,0
2023-01-05T02:15:03.162Z,0
2023-01-05T02:20:03.105Z,0
2023-01-05T02:25:02.993Z,0
2023-01-05T02:30:03.007Z,0
2023-01-05T02:35:02.645Z,0
2023-01-05T02:40:02.876Z,0
2023-01-05T02:45:02.801Z,0
2023-01-05T02:50:02.535Z,0
2023-01-05T02:55:03.815Z,0
2023-01-05T03:00:03.080Z,0
2023-01-05T03:05:02.733Z,0
2023-01-05T03:10:02.825Z,0
2023-01-05T03:15:02.521Z,0
2023-01-05T03:20:02.479Z,0
2023-01-05T03:25:02.470Z,0
2023-01-05T03:30:03.051Z,0
2023-01-05T03:35:03.058Z,0
2023-01-05T03:40:02.524Z,0
2023-01-05T03:45:02.424Z,0
2023-01-05T03:50:03.280Z,0
2023-01-05T03:55:03.823Z,0
2023-01-05T04:00:02.703Z,0
2023-01-05T04:05:02.959Z,0
2023-01-05T04:10:02.935Z,0
2023-01-05T04:15:02.953Z,0
2023-01-05T04:20:02.496Z,0
2023-01-05T04:25:03.328Z,0
2023-01-05T04:30:03.083Z,0
2023-01-05T04:35:11.729Z,0
2023-01-05T04:40:02.880Z,0
2023-01-05T04:45:02.499Z,0
2023-01-05T04:50:02.454Z,0
2023-01-05T04:55:03.984Z,0
2023-01-05T05:00:02.973Z,0
2023-01-05T05:05:02.792Z,0
2023-01-05T05:10:03.302Z,0
2023-01-05T05:15:02.867Z,0
2023-01-05T05:20:03.166Z,0
2023-01-05T05:30:02.594Z,0
2023-01-05T05:35:03.163Z,0
2023-01-05T05:40:03.192Z,0
2023-01-05T05:45:03.124Z,0
2023-01-05T05:50:02.944Z,0
2023-01-05T05:55:03.489Z,0
2023-01-05T06:00:02.390Z,0
2023-01-05T06:05:03.361Z,0
2023-01-05T06:10:03.181Z,0
2023-01-05T06:15:02.771Z,0
2023-01-05T06:20:02.582Z,0
2023-01-05T06:25:02.662Z,0
2023-01-05T06:30:02.477Z,0
2023-01-05T06:35:02.470Z,0
2023-01-05T06:40:03.159Z,0.68
2023-01-05T06:45:03.307Z,1.13
2023-01-05T06:50:03.053Z,4.19
2023-01-05T06:55:04.011Z,5
2023-01-05T07:00:03.018Z,11.67
2023-01-05T07:05:02.385Z,8.33
2023-01-05T07:10:03.214Z,23.33
2023-01-05T07:15:03.000Z,43.33
2023-01-05T07:20:03.197Z,40
2023-01-05T07:25:02.619Z,53.33
2023-01-05T07:30:03.323Z,130
2023-01-05T07:35:03.054Z,135
2023-01-05T07:40:02.911Z,236.67
2023-01-05T07:45:02.943Z,240
2023-01-05T07:50:02.887Z,283.33
2023-01-05T07:55:03.507Z,458.33
2023-01-05T08:00:03.143Z,595
2023-01-05T08:05:02.833Z,695
2023-01-05T08:10:02.922Z,708.33
2023-01-05T08:15:02.634Z,696.67
2023-01-05T08:20:03.324Z,1553.33
2023-01-05T08:25:02.339Z,1398.33
2023-01-05T08:30:03.406Z,975
2023-01-05T08:35:02.911Z,1063.33
2023-01-05T08:40:02.698Z,1176.67
2023-01-05T08:45:02.553Z,1941.67
2023-01-05T08:50:02.666Z,3443.33
2023-01-05T08:55:03.155Z,3210
2023-01-05T09:00:03.291Z,2646.67
2023-01-05T09:05:03.002Z,1630
2023-01-05T09:10:02.849Z,1428.33
2023-01-05T09:15:02.630Z,1645
2023-01-05T09:20:02.777Z,2878.33
2023-01-05T09:25:03.155Z,1448.33
2023-01-05T09:30:02.898Z,1371.67
2023-01-05T09:35:02.813Z,776.67
2023-01-05T09:40:02.686Z,1163.33
2023-01-05T09:45:02.620Z,2431.67
2023-01-05T09:50:02.349Z,845
2023-01-05T09:55:03.369Z,1068.33
2023-01-05T10:00:02.947Z,1748.33
2023-01-05T10:05:03.377Z,2666.67
2023-01-05T10:10:02.641Z,1453.33
2023-01-05T10:15:02.595Z,1006.67
2023-01-05T10:20:02.485Z,1250
2023-01-05T10:30:03.126Z,1078.33
2023-01-05T10:35:02.890Z,998.33
2023-01-05T10:40:02.811Z,1836.67
2023-01-05T10:50:03.432Z,9591.67
2023-01-05T10:55:03.642Z,6943.33
2023-01-05T11:00:03.111Z,4496.67
2023-01-05T11:05:02.949Z,2503.33
2023-01-05T11:10:02.536Z,2490
2023-01-05T11:15:03.400Z,3151.67
2023-01-05T11:20:02.530Z,5411.67
2023-01-05T11:25:03.275Z,2128.33
2023-01-05T11:30:03.262Z,6850
2023-01-05T11:35:02.942Z,5356.67
2023-01-05T11:40:03.030Z,3493.33
2023-01-05T11:45:02.808Z,5661.67
2023-01-05T11:50:10.291Z,2826.67
2023-01-05T11:55:03.599Z,1573.33
2023-01-05T12:00:03.105Z,1508.33
2023-01-05T12:05:02.760Z,2160
2023-01-05T12:10:02.531Z,4476.67
2023-01-05T12:15:03.274Z,4328.33
2023-01-05T12:20:03.236Z,2186.67
2023-01-05T12:25:02.903Z,2873.33
2023-01-05T12:35:02.733Z,6570
2023-01-05T12:40:02.790Z,6296.67
2023-01-05T12:45:02.645Z,5896.67
2023-01-05T12:50:02.516Z,5173.33
2023-01-05T12:55:03.776Z,2560
2023-01-05T13:00:03.043Z,3175
2023-01-05T13:05:02.748Z,4898.33
2023-01-05T13:10:04.121Z,4246.67
2023-01-05T13:15:02.615Z,4243.33
2023-01-05T13:20:02.333Z,3988.33
2023-01-05T13:25:03.193Z,3830
2023-01-05T13:30:03.060Z,3715
2023-01-05T13:35:02.964Z,3708.33
2023-01-05T13:40:03.221Z,3361.67
2023-01-05T13:45:03.227Z,2773.33
2023-01-05T13:50:03.105Z,1941.67
2023-01-05T13:55:14.567Z,1071.67
2023-01-05T14:00:10.100Z,1015
2023-01-05T14:05:03.159Z,935
2023-01-05T14:10:03.282Z,915
2023-01-05T14:15:02.864Z,926.67
2023-01-05T14:20:02.579Z,866.67
2023-01-05T14:25:02.490Z,833.33
2023-01-05T14:30:03.284Z,735
2023-01-05T14:35:03.146Z,661.67
2023-01-05T14:45:02.592Z,530
2023-01-05T14:50:02.447Z,453.33
2023-01-05T14:55:39.468Z,426.67
2023-01-05T15:00:02.918Z,355
2023-01-05T15:05:03.018Z,278.33
2023-01-05T15:10:02.777Z,210
2023-01-05T15:15:03.886Z,153.33
2023-01-05T15:20:04.409Z,108.33
2023-01-05T15:25:02.519Z,70
2023-01-05T15:30:03.465Z,25
2023-01-05T15:35:03.087Z,11.67
2023-01-05T15:40:03.009Z,11.21
2023-01-05T15:45:02.610Z,4.75
2023-01-05T15:50:02.683Z,2.04
2023-01-05T15:55:02.902Z,0.91
2023-01-05T16:00:03.342Z,0.34
2023-01-05T16:05:02.435Z,0.11
2023-01-05T16:10:05.694Z,0
2023-01-05T16:15:03.013Z,0
2023-01-05T16:20:02.707Z,0
2023-01-05T16:25:02.450Z,0
2023-01-05T16:30:03.207Z,0
2023-01-05T16:35:02.405Z,0
2023-01-05T16:40:03.329Z,0
2023-01-05T16:45:02.957Z,0
2023-01-05T16:50:02.999Z,0
2023-01-05T16:55:03.369Z,0
2023-01-05T17:00:02.477Z,0
2023-01-05T17:05:02.664Z,0
2023-01-05T17:10:02.339Z,0
2023-01-05T17:15:03.162Z,0
2023-01-05T17:20:02.897Z,0
2023-01-05T17:25:02.686Z,0
2023-01-05T17:30:02.635Z,0
2023-01-05T17:35:02.430Z,0
2023-01-05T17:40:03.349Z,0
2023-01-05T17:45:03.627Z,0
2023-01-05T17:50:03.398Z,0
2023-01-05T17:55:03.485Z,0
2023-01-05T18:00:02.703Z,0
2023-01-05T18:05:02.580Z,0
2023-01-05T18:10:03.390Z,0
2023-01-05T18:15:03.183Z,0
2023-01-05T18:20:03.048Z,0
2023-01-05T18:25:02.964Z,0
2023-01-05T18:30:02.803Z,0
2023-01-05T18:35:09.378Z,0
2023-01-05T18:40:03.494Z,0
2023-01-05T18:45:26.112Z,0
2023-01-05T18:50:02.567Z,0
2023-01-05T18:55:04.191Z,0
2023-01-05T19:00:03.023Z,0
2023-01-05T19:05:02.794Z,0
2023-01-05T19:10:02.883Z,0
2023-01-05T19:15:03.180Z,0
2023-01-05T19:20:02.814Z,0
2023-01-05T19:25:02.596Z,0
2023-01-05T19:30:03.256Z,0
2023-01-05T19:35:02.916Z,0
2023-01-05T19:40:02.937Z,0
2023-01-05T19:45:02.490Z,0
2023-01-05T19:50:02.390Z,0
2023-01-05T19:55:04.014Z,0
2023-01-05T20:00:02.418Z,0
2023-01-05T20:05:03.379Z,0
2023-01-05T20:10:02.948Z,0
2023-01-05T20:15:02.614Z,0
2023-01-05T20:20:02.490Z,0
2023-01-05T20:25:02.381Z,0
2023-01-05T20:30:03.266Z,0
2023-01-05T20:35:02.734Z,0
2023-01-05T20:40:02.794Z,0
2023-01-05T20:45:03.310Z,0
2023-01-05T20:50:03.296Z,0
2023-01-05T20:55:03.122Z,0
2023-01-05T21:00:02.469Z,0
2023-01-05T21:05:03.193Z,0
2023-01-05T21:10:02.837Z,0
2023-01-05T21:15:02.758Z,0
2023-01-05T21:20:02.830Z,0
2023-01-05T21:25:02.532Z,0
2023-01-05T21:30:03.367Z,0
2023-01-05T21:35:03.111Z,0
2023-01-05T21:40:03.062Z,0
2023-01-05T21:45:02.664Z,0
2023-01-05T21:50:03.349Z,0
2023-01-05T21:55:02.685Z,0
2023-01-05T22:00:03.288Z,0
2023-01-05T22:05:02.894Z,0
2023-01-05T22:10:02.629Z,0
2023-01-05T22:15:02.506Z,0
2023-01-05T22:20:03.633Z,0
2023-01-05T22:25:03.148Z,0
2023-01-05T22:30:02.865Z,0
2023-01-05T22:35:02.395Z,0
2023-01-05T22:40:03.282Z,0
2023-01-05T22:45:03.047Z,0
2023-01-05T22:50:02.926Z,0
2023-01-05T22:55:03.410Z,0
2023-01-05T23:00:03.011Z,0
2023-01-05T23:05:04.357Z,0
2023-01-05T23:10:02.446Z,0
2023-01-05T23:15:03.297Z,0
2023-01-05T23:20:03.230Z,0
2023-01-05T23:25:03.325Z,0
2023-01-05T23:30:02.993Z,0
2023-01-05T23:35:02.824Z,0
2023-01-05T23:40:02.717Z,0
2023-01-05T23:45:02.628Z,0
2023-01-05T23:50:02.316Z,0
2023-01-05T23:55:03.885Z,0
